createdAt,value
2022-09-16T00:02:22.540Z,96528.03
2022-09-16T00:04:49.068Z,96526.66
2022-09-16T00:07:15.590Z,96529.44
2022-09-16T00:09:42.110Z,96522.03
2022-09-16T00:12:08.636Z,96525.38
2022-09-16T00:14:35.141Z,96525.66
2022-09-16T00:17:01.642Z,96526.91
2022-09-16T00:19:28.132Z,96522.63
2022-09-16T00:21:54.628Z,96520.69
2022-09-16T00:24:21.105Z,96520.13
2022-09-16T00:26:47.641Z,96524.44
2022-09-16T00:29:14.191Z,96530.97
2022-09-16T00:31:40.906Z,96518.56
2022-09-16T00:34:10.477Z,96514.28
2022-09-16T00:36:37.460Z,96509.66
2022-09-16T00:39:03.998Z,96512.03
2022-09-16T00:41:33.253Z,96506.47
2022-09-16T00:44:06.674Z,96500.31
2022-09-16T00:46:51.512Z,96502.28
2022-09-16T00:49:30.268Z,96500.75
2022-09-16T00:52:02.118Z,96508.56
2022-09-16T00:54:29.885Z,96508.69
2022-09-16T00:56:59.452Z,96508.69
2022-09-16T00:59:34.228Z,96504.91
2022-09-16T01:02:06.872Z,96503.53
2022-09-16T01:04:40.810Z,96495.34
2022-09-16T01:07:07.877Z,96508.69
2022-09-16T01:09:34.496Z,96508.84
2022-09-16T01:12:01.218Z,96509.66
2022-09-16T01:14:47.963Z,96500.31
2022-09-16T01:17:47.994Z,96509.94
2022-09-16T01:20:17.425Z,96503.41
2022-09-16T01:23:02.144Z,96506.19
2022-09-16T01:26:03.826Z,96499.91
2022-09-16T01:28:47.851Z,96499.91
2022-09-16T01:31:33.140Z,96509.38
2022-09-16T01:34:11.452Z,96510.22
2022-09-16T01:36:41.191Z,96512.31
2022-09-16T01:39:18.447Z,96500.75
2022-09-16T01:41:44.878Z,96510.88
2022-09-16T01:44:27.159Z,96505.19
2022-09-16T01:47:18.651Z,96500.03
2022-09-16T01:49:47.836Z,96500.44
2022-09-16T01:52:22.948Z,96504.22
2022-09-16T01:55:02.999Z,96503.25
2022-09-16T01:57:37.611Z,96495.00
2022-09-16T02:00:14.360Z,96487.63
2022-09-16T02:02:48.287Z,96489.31
2022-09-16T02:05:20.344Z,96485.69
2022-09-16T02:07:53.140Z,96489.03
2022-09-16T02:10:34.803Z,96480.13
2022-09-16T02:13:12.075Z,96482.38
2022-09-16T02:15:41.833Z,96473.00
2022-09-16T02:18:12.151Z,96478.75
2022-09-16T02:20:43.106Z,96480.56
2022-09-16T02:23:19.091Z,96478.88
2022-09-16T02:25:48.322Z,96473.75
2022-09-16T02:28:23.052Z,96470.69
2022-09-16T02:30:53.634Z,96468.72
2022-09-16T02:33:24.432Z,96461.63
2022-09-16T02:35:54.160Z,96466.06
2022-09-16T02:38:30.284Z,96467.44
2022-09-16T02:41:00.075Z,96459.97
2022-09-16T02:43:28.126Z,96456.03
2022-09-16T02:46:04.714Z,96458.13
2022-09-16T02:48:42.833Z,96461.63
2022-09-16T02:51:27.724Z,96454.09
2022-09-16T02:54:13.218Z,96451.16
2022-09-16T02:56:42.019Z,96453.53
2022-09-16T02:59:11.754Z,96452.56
2022-09-16T03:01:44.238Z,96458.69
2022-09-16T03:04:21.251Z,96453.28
2022-09-16T03:06:48.550Z,96450.63
2022-09-16T03:09:18.357Z,96450.91
2022-09-16T03:12:01.246Z,96453.97
2022-09-16T03:15:00.874Z,96448.69
2022-09-16T03:17:51.902Z,96456.22
2022-09-16T03:20:46.912Z,96459.00
2022-09-16T03:23:25.583Z,96456.50
2022-09-16T03:26:17.716Z,96454.25
2022-09-16T03:28:56.516Z,96455.78
2022-09-16T03:31:31.499Z,96461.91
2022-09-16T03:34:05.091Z,96466.09
2022-09-16T03:36:36.012Z,96464.28
2022-09-16T03:39:04.199Z,96459.00
2022-09-16T03:41:32.922Z,96455.25
2022-09-16T03:44:03.835Z,96439.06
2022-09-16T03:46:31.763Z,96442.13
2022-09-16T03:48:58.954Z,96434.91
2022-09-16T03:51:26.234Z,96447.56
2022-09-16T03:53:53.593Z,96444.25
2022-09-16T03:56:20.344Z,96446.31
2022-09-16T03:58:50.497Z,96452.06
2022-09-16T04:01:17.112Z,96448.41
2022-09-16T04:03:43.725Z,96442.44
2022-09-16T04:06:10.280Z,96440.06
2022-09-16T04:08:37.286Z,96438.56
2022-09-16T04:11:05.677Z,96430.88
2022-09-16T04:13:35.786Z,96430.88
2022-09-16T04:16:04.219Z,96418.09
2022-09-16T04:18:31.771Z,96415.03
2022-09-16T04:20:59.301Z,96413.06
2022-09-16T04:23:27.124Z,96413.34
2022-09-16T04:26:01.610Z,96423.22
2022-09-16T04:28:31.042Z,96418.34
2022-09-16T04:31:05.544Z,96426.00
2022-09-16T04:33:34.930Z,96414.03
2022-09-16T04:36:06.687Z,96424.50
2022-09-16T04:38:33.226Z,96422.25
2022-09-16T04:41:06.002Z,96430.75
2022-09-16T04:43:32.765Z,96421.84
2022-09-16T04:45:59.983Z,96417.38
2022-09-16T04:48:27.096Z,96422.38
2022-09-16T04:50:54.677Z,96422.66
2022-09-16T04:53:22.071Z,96428.63
2022-09-16T04:55:48.645Z,96429.75
2022-09-16T04:58:15.139Z,96431.28
2022-09-16T05:00:41.592Z,96430.16
2022-09-16T05:03:08.274Z,96435.03
2022-09-16T05:05:34.937Z,96429.19
2022-09-16T05:08:01.689Z,96440.88
2022-09-16T05:10:28.584Z,96432.94
2022-09-16T05:12:55.316Z,96433.19
2022-09-16T05:15:21.938Z,96440.28
2022-09-16T05:17:51.317Z,96441.25
2022-09-16T05:20:18.457Z,96433.72
2022-09-16T05:22:45.058Z,96438.88
2022-09-16T05:25:11.882Z,96442.06
2022-09-16T05:27:38.425Z,96440.63
2022-09-16T05:30:05.265Z,96446.88
2022-09-16T05:32:31.998Z,96440.31
2022-09-16T05:34:58.682Z,96447.28
2022-09-16T05:37:25.175Z,96450.34
2022-09-16T05:39:51.709Z,96450.75
2022-09-16T05:42:18.242Z,96453.88
2022-09-16T05:44:46.091Z,96450.69
2022-09-16T05:47:14.744Z,96446.84
2022-09-16T05:49:41.226Z,96463.06
2022-09-16T05:52:07.722Z,96462.22
2022-09-16T05:54:34.208Z,96455.28
2022-09-16T05:57:05.978Z,96473.63
2022-09-16T05:59:33.489Z,96457.56
2022-09-16T06:02:01.360Z,96463.66
2022-09-16T06:04:27.936Z,96467.69
2022-09-16T06:06:54.467Z,96459.50
2022-09-16T06:09:23.190Z,96459.63
2022-09-16T06:11:51.808Z,96457.50
2022-09-16T06:14:19.784Z,96447.38
2022-09-16T06:16:46.942Z,96447.00
2022-09-16T06:19:17.154Z,96449.00
2022-09-16T06:21:44.902Z,96448.31
2022-09-16T06:24:13.102Z,96451.63
2022-09-16T06:26:42.249Z,96453.84
2022-09-16T06:29:10.840Z,96452.34
2022-09-16T06:31:38.591Z,96455.97
2022-09-16T06:34:06.474Z,96465.22
2022-09-16T06:36:42.746Z,96469.34
2022-09-16T06:39:13.264Z,96473.38
2022-09-16T06:41:39.886Z,96475.53
2022-09-16T06:44:06.423Z,96473.25
2022-09-16T06:46:33.361Z,96456.25
2022-09-16T06:49:05.089Z,96453.53
2022-09-16T06:51:32.618Z,96454.25
2022-09-16T06:54:02.922Z,96455.22
2022-09-16T06:56:29.493Z,96455.69
2022-09-16T06:58:57.366Z,96452.00
2022-09-16T07:01:29.302Z,96454.59
2022-09-16T07:03:58.414Z,96449.94
2022-09-16T07:06:52.318Z,96454.13
2022-09-16T07:09:16.089Z,96452.53
2022-09-16T07:11:42.609Z,96458.13
2022-09-16T07:14:09.750Z,96454.06
2022-09-16T07:16:36.477Z,96458.41
2022-09-16T07:19:03.791Z,96457.63
2022-09-16T07:21:30.728Z,96451.56
2022-09-16T07:24:02.611Z,96467.13
2022-09-16T07:26:32.166Z,96465.66
2022-09-16T07:29:03.789Z,96458.94
2022-09-16T07:31:33.335Z,96462.22
2022-09-16T07:34:04.240Z,96466.84
2022-09-16T07:36:37.755Z,96476.28
2022-09-16T07:39:04.900Z,96478.31
2022-09-16T07:41:35.366Z,96476.66
2022-09-16T07:44:02.699Z,96472.47
2022-09-16T07:46:32.954Z,96476.16
2022-09-16T07:49:01.463Z,96488.66
2022-09-16T07:51:30.189Z,96485.50
2022-09-16T07:54:08.772Z,96491.13
2022-09-16T07:56:38.775Z,96500.50
2022-09-16T07:59:06.689Z,96496.53
2022-09-16T08:01:33.699Z,96495.41
2022-09-16T08:04:00.953Z,96486.69
2022-09-16T08:06:32.346Z,96481.78
2022-09-16T08:09:09.804Z,96480.44
2022-09-16T08:11:42.323Z,96476.47
2022-09-16T08:14:08.846Z,96471.50
2022-09-16T08:16:35.353Z,96474.19
2022-09-16T08:19:01.801Z,96478.41
2022-09-16T08:21:29.449Z,96477.03
2022-09-16T08:23:56.967Z,96480.25
2022-09-16T08:26:24.247Z,96479.34
2022-09-16T08:29:07.797Z,96481.19
2022-09-16T08:31:35.350Z,96486.59
2022-09-16T08:34:01.899Z,96485.56
2022-09-16T08:36:28.843Z,96478.78
2022-09-16T08:38:56.865Z,96473.47
2022-09-16T08:41:32.524Z,96474.72
2022-09-16T08:44:20.633Z,96475.47
2022-09-16T08:47:03.946Z,96482.09
2022-09-16T08:49:46.979Z,96483.22
2022-09-16T08:52:15.724Z,96473.06
2022-09-16T08:54:49.634Z,96472.91
2022-09-16T08:57:21.827Z,96474.78
2022-09-16T09:00:02.067Z,96477.44
2022-09-16T09:02:37.967Z,96473.47
2022-09-16T09:05:26.501Z,96475.91
2022-09-16T09:08:15.408Z,96477.94
2022-09-16T09:10:50.837Z,96472.59
2022-09-16T09:13:36.975Z,96474.09
2022-09-16T09:16:24.814Z,96471.63
2022-09-16T09:19:28.318Z,96467.34
2022-09-16T09:22:13.929Z,96466.50
2022-09-16T09:24:59.632Z,96466.69
2022-09-16T09:27:53.768Z,96456.72
2022-09-16T09:30:28.462Z,96452.59
2022-09-16T09:33:27.769Z,96449.47
2022-09-16T09:36:20.603Z,96448.38
2022-09-16T09:39:25.690Z,96440.34
2022-09-16T09:42:02.922Z,96441.88
2022-09-16T09:44:44.194Z,96441.63
2022-09-16T09:47:24.885Z,96436.47
2022-09-16T09:49:56.982Z,96442.53
2022-09-16T09:52:31.228Z,96442.03
2022-09-16T09:55:06.371Z,96434.81
2022-09-16T09:57:40.872Z,96436.53
2022-09-16T10:00:17.512Z,96434.75
2022-09-16T10:02:49.553Z,96431.03
2022-09-16T10:05:23.741Z,96430.47
2022-09-16T10:07:53.489Z,96430.66
2022-09-16T10:10:21.361Z,96429.81
2022-09-16T10:12:52.321Z,96430.09
2022-09-16T10:15:30.406Z,96435.97
2022-09-16T10:18:00.253Z,96434.75
2022-09-16T10:20:38.248Z,96434.81
2022-09-16T10:23:16.574Z,96424.63
2022-09-16T10:25:43.491Z,96427.44
2022-09-16T10:28:25.339Z,96418.03
2022-09-16T10:30:54.811Z,96414.16
2022-09-16T10:33:43.831Z,96415.47
2022-09-16T10:36:18.808Z,96409.06
2022-09-16T10:39:03.833Z,96404.91
2022-09-16T10:41:44.595Z,96408.50
2022-09-16T10:44:25.952Z,96403.72
2022-09-16T10:47:09.278Z,96412.56
2022-09-16T10:49:44.653Z,96407.06
2022-09-16T10:52:26.511Z,96399.75
2022-09-16T10:54:54.541Z,96398.88
2022-09-16T10:57:32.345Z,96398.66
2022-09-16T11:00:13.851Z,96402.47
2022-09-16T11:02:59.991Z,96393.56
2022-09-16T11:05:35.703Z,96400.22
2022-09-16T11:08:11.906Z,96383.22
2022-09-16T11:11:11.927Z,96394.81
2022-09-16T11:14:02.064Z,96391.13
2022-09-16T11:16:54.388Z,96385.16
2022-09-16T11:19:40.042Z,96387.97
2022-09-16T11:22:16.164Z,96395.28
2022-09-16T11:25:15.796Z,96404.16
2022-09-16T11:27:57.273Z,96390.28
2022-09-16T11:30:24.203Z,96378.22
2022-09-16T11:33:04.194Z,96377.66
2022-09-16T11:35:56.122Z,96381.78
2022-09-16T11:38:43.937Z,96383.91
2022-09-16T11:41:21.687Z,96388.00
2022-09-16T11:44:04.029Z,96400.03
2022-09-16T11:46:45.961Z,96389.53
2022-09-16T11:49:35.248Z,96391.56
2022-09-16T11:52:20.358Z,96386.13
2022-09-16T11:55:27.102Z,96393.09
2022-09-16T11:57:58.594Z,96396.75
2022-09-16T12:00:25.581Z,96392.22
2022-09-16T12:03:09.105Z,96383.75
2022-09-16T12:05:41.603Z,96380.34
2022-09-16T12:08:33.036Z,96387.63
2022-09-16T12:11:36.514Z,96377.63
2022-09-16T12:14:16.585Z,96366.75
2022-09-16T12:16:55.381Z,96365.84
2022-09-16T12:19:37.983Z,96373.09
2022-09-16T12:22:10.243Z,96368.06
2022-09-16T12:24:37.003Z,96370.84
2022-09-16T12:27:22.570Z,96370.44
2022-09-16T12:29:56.763Z,96361.28
2022-09-16T12:32:43.709Z,96360.56
2022-09-16T12:35:25.419Z,96357.25
2022-09-16T12:37:54.177Z,96367.25
2022-09-16T12:40:25.101Z,96362.56
2022-09-16T12:43:13.447Z,96372.34
2022-09-16T12:45:39.946Z,96380.84
2022-09-16T12:48:43.854Z,96371.47
2022-09-16T12:51:31.606Z,96375.66
2022-09-16T12:54:07.571Z,96371.72
2022-09-16T12:56:47.496Z,96373.81
2022-09-16T12:59:44.309Z,96382.03
2022-09-16T13:02:26.434Z,96374.31
2022-09-16T13:04:57.521Z,96381.38
2022-09-16T13:07:32.452Z,96397.28
2022-09-16T13:10:06.863Z,96400.97
2022-09-16T13:12:43.045Z,96409.25
2022-09-16T13:15:25.223Z,96422.47
2022-09-16T13:17:53.318Z,96421.38
2022-09-16T13:20:26.717Z,96425.97
2022-09-16T13:22:55.904Z,96427.78
2022-09-16T13:25:26.658Z,96429.75
2022-09-16T13:28:01.489Z,96444.94
2022-09-16T13:30:29.950Z,96467.91
2022-09-16T13:32:58.513Z,96465.53
2022-09-16T13:35:25.041Z,96449.66
2022-09-16T13:37:54.669Z,96450.78
2022-09-16T13:40:30.423Z,96435.03
2022-09-16T13:43:09.266Z,96436.09
2022-09-16T13:45:41.133Z,96455.91
2022-09-16T13:48:24.504Z,96475.00
2022-09-16T13:50:57.304Z,96478.75
2022-09-16T13:53:37.584Z,96464.13
2022-09-16T13:56:29.742Z,96470.97
2022-09-16T13:59:33.560Z,96465.94
2022-09-16T14:02:19.569Z,96476.81
2022-09-16T14:04:54.866Z,96479.59
2022-09-16T14:07:42.087Z,96490.72
2022-09-16T14:10:18.624Z,96475.69
2022-09-16T14:13:07.423Z,96470.53
2022-09-16T14:15:42.447Z,96468.88
2022-09-16T14:18:15.988Z,96454.25
2022-09-16T14:21:02.471Z,96459.69
2022-09-16T14:23:30.712Z,96446.44
2022-09-16T14:25:57.616Z,96457.72
2022-09-16T14:28:28.677Z,96451.63
2022-09-16T14:31:00.998Z,96456.63
2022-09-16T14:33:32.103Z,96451.47
2022-09-16T14:36:00.337Z,96454.81
2022-09-16T14:38:50.649Z,96464.28
2022-09-16T14:41:41.401Z,96473.44
2022-09-16T14:44:22.693Z,96471.38
2022-09-16T14:50:40.617Z,96477.34
2022-09-16T14:54:26.240Z,96477.66
2022-09-16T15:05:36.068Z,96501.53
2022-09-16T15:08:19.927Z,96507.44
2022-09-16T15:10:53.507Z,96513.84
2022-09-16T15:40:10.247Z,96528.66
2022-09-16T15:54:15.022Z,96528.50
2022-09-16T16:23:55.315Z,96538.03
2022-09-16T16:26:21.817Z,96537.03
2022-09-16T16:32:02.934Z,96533.41
2022-09-16T16:42:19.999Z,96526.59
2022-09-16T16:44:47.104Z,96519.75
2022-09-16T17:19:26.164Z,96513.13
2022-09-16T17:21:53.766Z,96516.63
2022-09-16T17:24:20.454Z,96515.47
2022-09-16T17:42:00.005Z,96522.34
2022-09-16T17:53:10.189Z,96526.91
2022-09-16T17:55:36.686Z,96524.66
2022-09-16T17:58:03.320Z,96527.16
2022-09-16T18:04:11.101Z,96549.06
2022-09-16T18:06:45.740Z,96552.50
2022-09-16T18:09:13.669Z,96544.88
2022-09-16T18:15:20.951Z,96551.34
2022-09-16T18:17:47.450Z,96564.75
2022-09-16T18:24:42.156Z,96567.16
2022-09-16T18:27:08.669Z,96569.50
2022-09-16T18:37:01.533Z,96562.72
2022-09-16T18:39:28.107Z,96564.03
2022-09-16T18:45:35.606Z,96565.22
2022-09-16T18:48:02.148Z,96563.44
2022-09-16T18:50:29.172Z,96565.94
2022-09-16T18:56:37.605Z,96564.66
2022-09-16T18:59:23.079Z,96558.03
2022-09-16T19:09:40.352Z,96553.63
2022-09-16T19:12:11.338Z,96564.97
2022-09-16T19:22:25.293Z,96557.59
2022-09-16T19:28:40.413Z,96562.38
2022-09-16T19:31:09.781Z,96559.03
2022-09-16T19:37:18.509Z,96566.06
2022-09-16T19:39:45.063Z,96553.50
2022-09-16T19:46:13.566Z,96547.63
2022-09-16T19:48:43.794Z,96547.50
2022-09-16T19:54:57.745Z,96546.44
2022-09-16T20:01:26.076Z,96538.66
2022-09-16T20:03:53.725Z,96540.69
2022-09-16T20:10:09.034Z,96531.25
2022-09-16T20:12:35.529Z,96538.31
2022-09-16T20:18:42.796Z,96542.00
2022-09-16T20:36:39.526Z,96548.72
2022-09-16T20:39:07.690Z,96539.75
2022-09-16T20:45:21.360Z,96519.06
2022-09-16T20:47:52.150Z,96525.97
2022-09-16T20:54:07.767Z,96523.34
2022-09-16T20:56:39.799Z,96528.63
2022-09-16T21:03:02.117Z,96522.28
2022-09-16T21:05:28.697Z,96527.88
2022-09-16T21:08:44.386Z,96532.06
2022-09-16T21:11:16.430Z,96536.63
2022-09-16T21:14:36.404Z,96547.63
2022-09-16T21:17:02.925Z,96549.44
2022-09-16T21:54:57.606Z,96526.78
2022-09-16T22:58:47.229Z,96537.47
2022-09-16T23:05:13.456Z,96546.28
2022-09-16T23:07:39.944Z,96549.03
2022-09-16T23:10:10.458Z,96545.53
2022-09-16T23:16:20.675Z,96544.22
2022-09-16T23:18:48.092Z,96549.69
2022-09-16T23:21:17.203Z,96557.00
2022-09-16T23:27:44.074Z,96557.47
2022-09-16T23:35:00.059Z,96555.44
2022-09-16T23:37:26.875Z,96541.47
2022-09-16T23:39:53.352Z,96544.59
2022-09-16T23:46:18.095Z,96540.56
2022-09-16T23:54:04.903Z,96530.00
